Aeroporto :
LOGIN :

Iscrizione | Disclaimer

   EN    FR    IT 

 










Sommario :    VFR   VFR Marginale   IFR   IFR Intensivo   IFR Molto Intensivo
Visibilità : 
Base nubi : 
>= 8 km
>= 3000ft
5 / 8 km
1000 / 3000 ft
1500m / 5 km
500 / 1000 ft
800 / 1500m
200 / 500 ft
< 800m
< 200 ft
Simboli :   Temporali  Nebbia  Neve Forte  Precipitazioni Forti  Vento > 20 kt
SIGMETs :   Varie  Temporali  Ghiacco  Turbolenza  Onda orograficha  Ceneri Vulcaniche






- Altitudine del aeroporto : 112 ft
- Codice IATA : KIR


EIKY - Kerry Farranfore

ULTIMO METAR :
  • 151730Z 23015G25KT 9999 -RA FEW011 BKN029 05/03 Q0984

METARs OBSOLETI :
  • 151700Z 22019KT 9999 BKN024 05/02 Q0984
  • 151630Z 22018G29KT 9999 BKN026 06/02 Q0983
  • 151600Z 21016G26KT 180V250 9999 -RA BKN022 07/02 Q0983
  • 151530Z 21010KT 9999 BKN024 07/02 Q0983
  • 151500Z 17010KT 9999 -RA BKN026 06/04 Q0984 RESHRA
  • 151430Z 17012KT 9999 RA FEW034 OVC039 06/03 Q0984

TAF TAF EIKY
Valido dal 15 a 18 ore il 16 a 03 ore UTC


1518/1603 21018G30KT 9999 FEW015 BKN025
TEMPO 1518/1521 -SHRASNGS SCT018CB
BECMG 1520/1521 22014KT



MetMap, La meteo Aeronautica in un colpo d'occhio ! - Copyright ORBIFLY Dicembre 2007 - Disclaimer

ORBIFLY MET'MAP TEAM :

Programmazione e sviluppo : Alexandra Zaïnal
Concezione : Baudouin d'Aumeries
Aiuto per la programmazione : Marc-Olivier Méhu
Supporto tecnico e logistico : Manuel Goepfert
Aiuto per la traduzione : Arnaldo La Scala

Contatto : metmap@orbifly.com




FONTI E CREDITI :

   NOAA